静岡空港の過去48時間の天気

静岡空港 (Shizuoka)

現在時刻: 10/18 12:58 JST (10/18 03:58 UTC) 以下の時間は現地時間です。

過去48時間のMETAR気象情報
時間 風向 風速(m/s) 視程 気温(℃) 湿度(%) 気圧(hPa) 天気現象
18 12:00 東北東 3 10km以上 21 56 1014
18 11:00 4 10km以上 19 64 1014
18 10:00 東北東 3 10km以上 20 60 1014
18 09:00 東北東 2 10km以上 18 73 1014
18 08:00 北北東 2 10km以上 17 72 1014
18 07:30 2 10km以上 16 82 1014
17 21:00 北西 2 10km以上 17 83 1013
17 20:00 北北西 2 10km以上 17 83 1012
17 19:00 北北西 2 10km以上 18 77 1012
17 18:00 1 10km以上 19 68 1012
17 17:00 1 10km以上 19 68 1011
17 16:00 南南東 2 10km以上 20 64 1010
17 15:00 南東 2 10km以上 20 60 1010
17 14:00 東南東 2 10km以上 21 60 1009
17 13:00 2 10km以上 20 64 1009
17 12:00 3 10km以上 20 64 1009
17 11:00 北北東 2 10km以上 20 64 1010
17 10:00 2 10km以上 19 73 1010
17 09:00 不定 1 10km以上 18 73 1010
17 08:00 北北西 2 10km以上 16 82 1010
17 07:30 北北西 2 10km以上 16 82 1009
16 21:00 北北西 2 10km以上 17 83 1010
16 20:00 北北西 2 10km以上 16 88 1010
16 19:00 北北西 2 10km以上 17 83 1010
16 18:00 北西 2 10km以上 17 88 1010
16 17:00 北北西 2 10km以上 18 77 1010
16 16:00 不定 1 10km以上 19 68 1011
16 15:00 静穏 0 10km以上 20 68 1011
16 14:00 不定 1 10km以上 20 64 1011
16 13:00 不定 1 10km以上 20 60 1012
RJNS 180300Z 06006KT 020V100 9999 FEW020 BKN090 21/12 Q1014
RJNS 180200Z 08008KT 9999 FEW020 BKN070 BKN080 19/12 Q1014
RJNS 180100Z 06006KT 9999 FEW020 BKN070 20/12 Q1014
RJNS 180000Z 06003KT 330V120 9999 FEW020 SCT070 18/13 Q1014
RJNS 172300Z 02004KT 340V090 9999 FEW020 BKN070 17/12 Q1014
RJNS 172230Z 01004KT 320V050 9999 FEW020 BKN070 16/13 Q1014
RJNS 171200Z 32004KT 280V340 9999 FEW025 SCT035 BKN/// 17/14 Q1013
RJNS 171100Z 33004KT 9999 FEW025 SCT070 BKN/// 17/14 Q1012
RJNS 171000Z 33003KT 9999 FEW025 SCT060 BKN/// 18/14 Q1012
RJNS 170900Z 19002KT 9999 FEW025 BKN/// 19/13 Q1012
RJNS 170800Z 19002KT 9999 FEW025 SCT050 BKN/// 19/13 Q1011
RJNS 170700Z 15004KT 100V180 9999 FEW025 BKN050 BKN/// 20/13 Q1010
RJNS 170600Z 13004KT 100V160 9999 FEW025 BKN/// 20/12 Q1010
RJNS 170500Z 12004KT 080V150 9999 FEW020 BKN/// 21/13 Q1009
RJNS 170400Z 08004KT 050V160 9999 FEW020 BKN/// 20/13 Q1009
RJNS 170300Z 09005KT 040V130 9999 FEW020 BKN/// 20/13 Q1009
RJNS 170200Z 03004KT 320V100 9999 FEW020 SCT120 BKN/// 20/13 Q1010
RJNS 170100Z 08003KT 010V150 9999 FEW020 BKN/// 19/14 Q1010
RJNS 170000Z VRB02KT 9999 FEW015 BKN/// 18/13 Q1010
RJNS 162300Z 34003KT 300V020 9999 FEW005 SCT120 16/13 Q1010
RJNS 162230Z 34003KT 9999 FEW005 BKN130 16/13 Q1009
RJNS 161200Z 33003KT 280V010 9999 FEW015 SCT100 BKN130 17/14 Q1010
RJNS 161100Z 34004KT 290V010 9999 FEW015 SCT130 BKN/// 16/14 Q1010
RJNS 161000Z 33003KT 290V360 9999 FEW015 SCT130 BKN180 17/14 Q1010
RJNS 160900Z 32003KT 9999 FEW015 SCT130 BKN/// 17/15 Q1010
RJNS 160800Z 34003KT 300V010 9999 FEW015 SCT130 BKN/// 18/14 Q1010
RJNS 160700Z VRB02KT 9999 FEW015 SCT150 BKN/// 19/13 Q1011
RJNS 160600Z 00000KT 9999 FEW015 BKN/// 20/14 Q1011
RJNS 160500Z VRB02KT 9999 FEW020 SCT180 BKN/// 20/13 Q1011
RJNS 160400Z VRB01KT 9999 FEW020 SCT160 BKN180 20/12 Q1012